sensor_id;sensor_type;location;lat;lon;timestamp;pressure;altitude;pressure_sealevel;temperature;humidity
38285;BME280;24088;42.664;23.354;2022-10-16T05:23:19;95844.94;;;6.83;100.00
38285;BME280;24088;42.664;23.354;2022-10-16T05:24:20;95847.97;;;6.74;100.00
38285;BME280;24088;42.664;23.354;2022-10-16T05:25:21;95852.69;;;6.77;100.00
38285;BME280;24088;42.664;23.354;2022-10-16T05:26:22;95847.28;;;6.85;100.00
38285;BME280;24088;42.664;23.354;2022-10-16T05:27:23;95851.56;;;6.82;100.00
38285;BME280;24088;42.664;23.354;2022-10-16T05:28:24;95852.75;;;6.85;100.00
38285;BME280;24088;42.664;23.354;2022-10-16T05:29:25;95848.78;;;6.78;100.00
38285;BME280;24088;42.664;23.354;2022-10-16T05:30:26;95841.25;;;7.06;100.00
38285;BME280;24088;42.664;23.354;2022-10-16T05:31:27;95839.91;;;7.30;100.00
38285;BME280;24088;42.664;23.354;2022-10-16T05:32:28;95845.50;;;7.47;100.00
38285;BME280;24088;42.664;23.354;2022-10-16T05:33:29;95846.75;;;7.57;100.00
38285;BME280;24088;42.664;23.354;2022-10-16T05:34:30;95839.75;;;7.60;100.00
38285;BME280;24088;42.664;23.354;2022-10-16T05:35:31;95842.53;;;7.67;100.00
38285;BME280;24088;42.664;23.354;2022-10-16T05:36:32;95845.97;;;7.57;100.00
38285;BME280;24088;42.664;23.354;2022-10-16T05:37:33;95845.63;;;7.65;100.00
38285;BME280;24088;42.664;23.354;2022-10-16T05:38:36;95842.53;;;7.70;100.00
38285;BME280;24088;42.664;23.354;2022-10-16T05:39:37;95846.88;;;7.71;100.00
38285;BME280;24088;42.664;23.354;2022-10-16T05:40:38;95840.97;;;7.69;100.00
38285;BME280;24088;42.664;23.354;2022-10-16T05:41:39;95836.41;;;7.88;100.00
38285;BME280;24088;42.664;23.354;2022-10-16T05:42:41;95846.75;;;8.19;100.00
38285;BME280;24088;42.664;23.354;2022-10-16T05:43:41;95849.94;;;8.32;100.00
38285;BME280;24088;42.664;23.354;2022-10-16T05:44:43;95844.91;;;8.41;100.00
38285;BME280;24088;42.664;23.354;2022-10-16T05:45:43;95853.84;;;8.35;100.00
38285;BME280;24088;42.664;23.354;2022-10-16T05:46:45;95848.34;;;8.27;100.00
38285;BME280;24088;42.664;23.354;2022-10-16T05:47:46;95852.72;;;8.43;100.00
38285;BME280;24088;42.664;23.354;2022-10-16T05:48:47;95854.75;;;8.60;100.00
38285;BME280;24088;42.664;23.354;2022-10-16T05:49:48;95846.59;;;8.71;100.00
38285;BME280;24088;42.664;23.354;2022-10-16T05:50:56;95850.44;;;8.59;100.00
38285;BME280;24088;42.664;23.354;2022-10-16T05:51:57;95855.97;;;8.70;100.00
38285;BME280;24088;42.664;23.354;2022-10-16T05:52:59;95853.59;;;8.68;100.00
38285;BME280;24088;42.664;23.354;2022-10-16T05:54:00;95850.97;;;9.04;100.00
38285;BME280;24088;42.664;23.354;2022-10-16T05:55:02;95852.16;;;9.24;100.00
38285;BME280;24088;42.664;23.354;2022-10-16T05:56:03;95851.34;;;9.06;100.00
38285;BME280;24088;42.664;23.354;2022-10-16T05:57:04;95854.88;;;9.10;100.00
38285;BME280;24088;42.664;23.354;2022-10-16T05:58:06;95847.47;;;9.28;100.00
38285;BME280;24088;42.664;23.354;2022-10-16T05:59:07;95860.41;;;9.53;100.00
38285;BME280;24088;42.664;23.354;2022-10-16T06:00:09;95861.19;;;9.46;100.00
38285;BME280;24088;42.664;23.354;2022-10-16T06:01:11;95863.50;;;9.37;100.00
38285;BME280;24088;42.664;23.354;2022-10-16T06:02:13;95869.00;;;9.26;100.00
38285;BME280;24088;42.664;23.354;2022-10-16T06:03:14;95864.69;;;9.18;100.00
38285;BME280;24088;42.664;23.354;2022-10-16T06:04:15;95868.22;;;9.30;100.00
38285;BME280;24088;42.664;23.354;2022-10-16T06:05:16;95867.44;;;9.58;100.00
38285;BME280;24088;42.664;23.354;2022-10-16T06:06:17;95870.94;;;9.76;100.00
38285;BME280;24088;42.664;23.354;2022-10-16T06:07:19;95868.22;;;9.65;100.00
38285;BME280;24088;42.664;23.354;2022-10-16T06:08:21;95878.41;;;9.68;100.00
38285;BME280;24088;42.664;23.354;2022-10-16T06:09:24;95875.63;;;9.97;100.00
38285;BME280;24088;42.664;23.354;2022-10-16T06:10:24;95869.00;;;9.98;100.00
38285;BME280;24088;42.664;23.354;2022-10-16T06:11:26;95876.78;;;10.10;100.00
38285;BME280;24088;42.664;23.354;2022-10-16T06:12:28;95875.22;;;10.20;100.00
38285;BME280;24088;42.664;23.354;2022-10-16T06:13:29;95879.53;;;10.28;100.00
38285;BME280;24088;42.664;23.354;2022-10-16T06:14:30;95869.53;;;10.77;100.00
38285;BME280;24088;42.664;23.354;2022-10-16T06:15:32;95878.75;;;11.19;100.00
38285;BME280;24088;42.664;23.354;2022-10-16T06:16:33;95875.13;;;11.33;100.00
38285;BME280;24088;42.664;23.354;2022-10-16T06:17:35;95879.63;;;11.01;100.00
38285;BME280;24088;42.664;23.354;2022-10-16T06:18:35;95875.03;;;11.43;100.00
38285;BME280;24088;42.664;23.354;2022-10-16T06:19:37;95880.28;;;11.83;100.00
38285;BME280;24088;42.664;23.354;2022-10-16T06:20:37;95881.41;;;11.85;100.00
38285;BME280;24088;42.664;23.354;2022-10-16T06:21:39;95890.03;;;11.35;100.00
38285;BME280;24088;42.664;23.354;2022-10-16T06:22:39;95877.03;;;11.39;100.00
38285;BME280;24088;42.664;23.354;2022-10-16T06:23:41;95878.66;;;11.29;100.00
38285;BME280;24088;42.664;23.354;2022-10-16T06:24:43;95880.31;;;11.72;100.00
38285;BME280;24088;42.664;23.354;2022-10-16T06:25:46;95884.88;;;11.93;100.00
38285;BME280;24088;42.664;23.354;2022-10-16T06:26:47;95884.56;;;11.80;100.00
38285;BME280;24088;42.664;23.354;2022-10-16T06:27:48;95891.63;;;11.81;100.00
38285;BME280;24088;42.664;23.354;2022-10-16T06:28:49;95887.63;;;11.96;100.00
38285;BME280;24088;42.664;23.354;2022-10-16T06:29:50;95894.53;;;12.12;100.00
38285;BME280;24088;42.664;23.354;2022-10-16T06:30:58;95896.44;;;12.18;100.00
38285;BME280;24088;42.664;23.354;2022-10-16T06:31:59;95888.75;;;11.99;100.00
38285;BME280;24088;42.664;23.354;2022-10-16T06:33:01;95891.88;;;12.05;100.00
38285;BME280;24088;42.664;23.354;2022-10-16T06:34:01;95896.72;;;12.31;100.00
38285;BME280;24088;42.664;23.354;2022-10-16T06:35:05;95886.38;;;12.42;100.00
38285;BME280;24088;42.664;23.354;2022-10-16T06:36:06;95887.69;;;12.31;100.00
38285;BME280;24088;42.664;23.354;2022-10-16T06:37:08;95893.78;;;12.49;100.00
38285;BME280;24088;42.664;23.354;2022-10-16T06:38:08;95894.47;;;12.57;100.00
38285;BME280;24088;42.664;23.354;2022-10-16T06:39:10;95898.53;;;12.45;100.00
38285;BME280;24088;42.664;23.354;2022-10-16T06:40:13;95899.28;;;12.49;100.00
38285;BME280;24088;42.664;23.354;2022-10-16T06:41:15;95899.09;;;12.63;100.00
38285;BME280;24088;42.664;23.354;2022-10-16T06:42:17;95898.53;;;12.45;100.00
38285;BME280;24088;42.664;23.354;2022-10-16T06:43:17;95900.41;;;12.55;100.00
38285;BME280;24088;42.664;23.354;2022-10-16T06:44:19;95897.25;;;12.87;100.00
38285;BME280;24088;42.664;23.354;2022-10-16T06:45:19;95902.25;;;12.65;100.00
38285;BME280;24088;42.664;23.354;2022-10-16T06:46:22;95900.56;;;12.37;100.00
38285;BME280;24088;42.664;23.354;2022-10-16T06:47:22;95906.19;;;12.64;100.00
38285;BME280;24088;42.664;23.354;2022-10-16T06:48:24;95900.00;;;13.18;100.00
38285;BME280;24088;42.664;23.354;2022-10-16T06:49:25;95898.97;;;13.08;100.00
38285;BME280;24088;42.664;23.354;2022-10-16T06:50:28;95905.16;;;13.16;100.00
38285;BME280;24088;42.664;23.354;2022-10-16T06:51:29;95909.44;;;13.20;100.00
38285;BME280;24088;42.664;23.354;2022-10-16T06:52:32;95911.47;;;12.86;100.00
38285;BME280;24088;42.664;23.354;2022-10-16T06:53:34;95910.06;;;13.01;100.00
38285;BME280;24088;42.664;23.354;2022-10-16T06:54:36;95909.47;;;13.17;100.00
38285;BME280;24088;42.664;23.354;2022-10-16T06:55:38;95913.78;;;13.18;100.00
38285;BME280;24088;42.664;23.354;2022-10-16T06:56:39;95918.00;;;13.57;100.00
38285;BME280;24088;42.664;23.354;2022-10-16T06:57:41;95909.88;;;13.73;97.99
38285;BME280;24088;42.664;23.354;2022-10-16T06:58:42;95914.44;;;13.33;100.00
38285;BME280;24088;42.664;23.354;2022-10-16T06:59:43;95920.03;;;13.52;100.00
38285;BME280;24088;42.664;23.354;2022-10-16T07:00:44;95918.34;;;13.32;100.00
38285;BME280;24088;42.664;23.354;2022-10-16T07:01:46;95918.34;;;13.62;97.42
38285;BME280;24088;42.664;23.354;2022-10-16T07:02:46;95922.81;;;13.80;96.99
38285;BME280;24088;42.664;23.354;2022-10-16T07:03:49;95910.16;;;14.06;94.40
38285;BME280;24088;42.664;23.354;2022-10-16T07:04:52;95920.63;;;13.91;93.94
38285;BME280;24088;42.664;23.354;2022-10-16T07:06:02;95923.19;;;13.78;95.21
38285;BME280;24088;42.664;23.354;2022-10-16T07:07:03;95917.56;;;14.09;94.26
38285;BME280;24088;42.664;23.354;2022-10-16T07:08:05;95915.44;;;13.96;93.94
38285;BME280;24088;42.664;23.354;2022-10-16T07:09:07;95923.41;;;13.91;94.84
38285;BME280;24088;42.664;23.354;2022-10-16T07:10:10;95918.00;;;14.07;93.58
38285;BME280;24088;42.664;23.354;2022-10-16T07:11:12;95917.94;;;14.34;90.93
38285;BME280;24088;42.664;23.354;2022-10-16T07:12:14;95917.16;;;14.34;91.16
38285;BME280;24088;42.664;23.354;2022-10-16T07:13:14;95916.59;;;14.66;88.32
38285;BME280;24088;42.664;23.354;2022-10-16T07:14:17;95910.22;;;14.89;86.42
38285;BME280;24088;42.664;23.354;2022-10-16T07:15:18;95913.84;;;15.06;83.46
38285;BME280;24088;42.664;23.354;2022-10-16T07:16:20;95914.91;;;14.92;83.71
38285;BME280;24088;42.664;23.354;2022-10-16T07:17:21;95911.22;;;14.78;85.11
38285;BME280;24088;42.664;23.354;2022-10-16T07:18:23;95925.25;;;14.88;84.57
38285;BME280;24088;42.664;23.354;2022-10-16T07:19:26;95927.16;;;15.11;83.46
38285;BME280;24088;42.664;23.354;2022-10-16T07:20:28;95918.41;;;15.32;81.84
38285;BME280;24088;42.664;23.354;2022-10-16T07:21:29;95919.50;;;15.18;80.61
38285;BME280;24088;42.664;23.354;2022-10-16T07:22:31;95918.44;;;14.92;82.10
38285;BME280;24088;42.664;23.354;2022-10-16T07:23:33;95923.47;;;14.58;84.39
38285;BME280;24088;42.664;23.354;2022-10-16T07:24:35;95917.88;;;14.61;85.83
38285;BME280;24088;42.664;23.354;2022-10-16T07:25:35;95920.22;;;14.83;84.32
38285;BME280;24088;42.664;23.354;2022-10-16T07:26:39;95925.72;;;15.02;82.45
38285;BME280;24088;42.664;23.354;2022-10-16T07:27:39;95924.53;;;14.84;83.97
38285;BME280;24088;42.664;23.354;2022-10-16T07:28:42;95925.47;;;14.97;83.38
38285;BME280;24088;42.664;23.354;2022-10-16T07:29:42;95923.31;;;15.24;81.91
38285;BME280;24088;42.664;23.354;2022-10-16T07:30:44;95924.38;;;15.31;81.18
38285;BME280;24088;42.664;23.354;2022-10-16T07:31:44;95930.09;;;15.40;79.96
38285;BME280;24088;42.664;23.354;2022-10-16T07:32:46;95923.09;;;15.35;79.42
38285;BME280;24088;42.664;23.354;2022-10-16T07:33:48;95924.09;;;15.25;81.06
38285;BME280;24088;42.664;23.354;2022-10-16T07:34:48;95927.00;;;15.18;81.44
38285;BME280;24088;42.664;23.354;2022-10-16T07:35:50;95925.41;;;15.37;80.26
38285;BME280;24088;42.664;23.354;2022-10-16T07:36:50;95929.97;;;15.27;78.99
38285;BME280;24088;42.664;23.354;2022-10-16T07:37:52;95926.63;;;15.36;79.37
38285;BME280;24088;42.664;23.354;2022-10-16T07:38:52;95926.81;;;15.45;79.08
38285;BME280;24088;42.664;23.354;2022-10-16T07:39:54;95925.22;;;15.27;79.01
38285;BME280;24088;42.664;23.354;2022-10-16T07:40:58;95925.59;;;15.10;81.12
38285;BME280;24088;42.664;23.354;2022-10-16T07:42:01;95921.88;;;15.36;79.73
38285;BME280;24088;42.664;23.354;2022-10-16T07:43:03;95921.81;;;15.76;78.44
38285;BME280;24088;42.664;23.354;2022-10-16T07:44:05;95919.91;;;16.06;75.75
38285;BME280;24088;42.664;23.354;2022-10-16T07:45:07;95925.09;;;16.20;74.57
38285;BME280;24088;42.664;23.354;2022-10-16T07:46:08;95924.94;;;16.11;72.22
38285;BME280;24088;42.664;23.354;2022-10-16T07:47:09;95930.72;;;15.84;73.93
38285;BME280;24088;42.664;23.354;2022-10-16T07:48:10;95921.13;;;16.05;73.77
38285;BME280;24088;42.664;23.354;2022-10-16T07:49:11;95927.78;;;16.07;72.93
38285;BME280;24088;42.664;23.354;2022-10-16T07:50:13;95931.59;;;16.13;72.81
38285;BME280;24088;42.664;23.354;2022-10-16T07:51:14;95930.47;;;15.94;73.86
38285;BME280;24088;42.664;23.354;2022-10-16T07:52:16;95932.72;;;15.83;75.36
38285;BME280;24088;42.664;23.354;2022-10-16T07:53:17;95929.78;;;15.90;75.65
38285;BME280;24088;42.664;23.354;2022-10-16T07:54:18;95925.72;;;15.95;74.75
38285;BME280;24088;42.664;23.354;2022-10-16T07:55:20;95929.84;;;15.87;75.78
38285;BME280;24088;42.664;23.354;2022-10-16T07:56:21;95925.88;;;16.04;74.79
38285;BME280;24088;42.664;23.354;2022-10-16T07:57:24;95931.19;;;16.15;73.76
38285;BME280;24088;42.664;23.354;2022-10-16T07:58:24;95925.72;;;16.27;73.65
38285;BME280;24088;42.664;23.354;2022-10-16T07:59:26;95924.81;;;16.31;72.42
38285;BME280;24088;42.664;23.354;2022-10-16T08:00:28;95933.06;;;16.01;73.98
38285;BME280;24088;42.664;23.354;2022-10-16T08:01:30;95929.94;;;16.32;73.47
38285;BME280;24088;42.664;23.354;2022-10-16T08:02:31;95930.66;;;16.65;70.95
38285;BME280;24088;42.664;23.354;2022-10-16T08:03:32;95935.03;;;16.50;70.04
38285;BME280;24088;42.664;23.354;2022-10-16T08:04:34;95938.97;;;16.82;69.45
38285;BME280;24088;42.664;23.354;2022-10-16T08:05:35;95936.13;;;17.27;67.48
38285;BME280;24088;42.664;23.354;2022-10-16T08:06:36;95934.06;;;17.69;65.36
38285;BME280;24088;42.664;23.354;2022-10-16T08:07:38;95938.94;;;17.65;64.04
38285;BME280;24088;42.664;23.354;2022-10-16T08:08:39;95933.59;;;17.58;64.85
38285;BME280;24088;42.664;23.354;2022-10-16T08:09:41;95938.66;;;17.34;64.09
38285;BME280;24088;42.664;23.354;2022-10-16T08:10:42;95939.13;;;17.33;64.62
38285;BME280;24088;42.664;23.354;2022-10-16T08:11:43;95937.03;;;17.49;63.76
38285;BME280;24088;42.664;23.354;2022-10-16T08:12:46;95932.81;;;17.58;63.68
38285;BME280;24088;42.664;23.354;2022-10-16T08:13:47;95932.16;;;17.53;64.72
38285;BME280;24088;42.664;23.354;2022-10-16T08:14:48;95932.72;;;17.07;65.38
38285;BME280;24088;42.664;23.354;2022-10-16T08:15:49;95931.13;;;16.93;66.20
38285;BME280;24088;42.664;23.354;2022-10-16T08:16:51;95932.53;;;16.85;69.28
38285;BME280;24088;42.664;23.354;2022-10-16T08:17:55;95930.81;;;17.03;67.65
38285;BME280;24088;42.664;23.354;2022-10-16T08:18:57;95934.09;;;17.15;65.98
38285;BME280;24088;42.664;23.354;2022-10-16T08:19:58;95925.53;;;17.09;64.51
38285;BME280;24088;42.664;23.354;2022-10-16T08:20:59;95930.72;;;17.07;65.03
38285;BME280;24088;42.664;23.354;2022-10-16T08:22:01;95930.19;;;17.12;64.82
38285;BME280;24088;42.664;23.354;2022-10-16T08:23:01;95926.97;;;17.14;65.80
38285;BME280;24088;42.664;23.354;2022-10-16T08:24:03;95929.31;;;17.15;65.44
38285;BME280;24088;42.664;23.354;2022-10-16T08:25:05;95926.81;;;17.46;64.42
38285;BME280;24088;42.664;23.354;2022-10-16T08:26:06;95928.13;;;17.42;64.91
38285;BME280;24088;42.664;23.354;2022-10-16T08:27:08;95928.44;;;17.18;64.50
38285;BME280;24088;42.664;23.354;2022-10-16T08:28:10;95930.97;;;17.25;64.37
38285;BME280;24088;42.664;23.354;2022-10-16T08:29:13;95922.91;;;17.31;63.02
38285;BME280;24088;42.664;23.354;2022-10-16T08:30:13;95927.88;;;17.23;63.34
38285;BME280;24088;42.664;23.354;2022-10-16T08:31:15;95918.97;;;17.16;63.38
38285;BME280;24088;42.664;23.354;2022-10-16T08:32:16;95922.25;;;17.40;62.71
38285;BME280;24088;42.664;23.354;2022-10-16T08:33:18;95920.84;;;17.61;62.34
38285;BME280;24088;42.664;23.354;2022-10-16T08:34:18;95925.88;;;17.79;60.92
38285;BME280;24088;42.664;23.354;2022-10-16T08:35:20;95925.47;;;17.64;60.56
38285;BME280;24088;42.664;23.354;2022-10-16T08:36:21;95924.91;;;17.31;60.80
38285;BME280;24088;42.664;23.354;2022-10-16T08:37:22;95922.91;;;17.31;61.18
38285;BME280;24088;42.664;23.354;2022-10-16T08:38:23;95918.47;;;17.34;60.77
38285;BME280;24088;42.664;23.354;2022-10-16T08:39:25;95923.69;;;17.32;60.85
38285;BME280;24088;42.664;23.354;2022-10-16T08:40:26;95919.50;;;17.65;60.25
38285;BME280;24088;42.664;23.354;2022-10-16T08:41:36;95924.81;;;17.72;59.57
38285;BME280;24088;42.664;23.354;2022-10-16T08:42:45;95926.03;;;17.59;58.07
38285;BME280;24088;42.664;23.354;2022-10-16T08:44:02;95924.69;;;17.50;59.34
38285;BME280;24088;42.664;23.354;2022-10-16T08:45:15;95920.63;;;18.06;58.81
38285;BME280;24088;42.664;23.354;2022-10-16T08:46:26;95927.09;;;18.03;57.74
38285;BME280;24088;42.664;23.354;2022-10-16T08:47:37;95921.66;;;17.87;57.07
38285;BME280;24088;42.664;23.354;2022-10-16T08:48:45;95933.28;;;17.69;58.34
38285;BME280;24088;42.664;23.354;2022-10-16T08:49:50;95919.81;;;17.67;58.50
38285;BME280;24088;42.664;23.354;2022-10-16T08:50:55;95921.72;;;17.58;56.51
38285;BME280;24088;42.664;23.354;2022-10-16T08:51:56;95925.63;;;17.60;57.19
38285;BME280;24088;42.664;23.354;2022-10-16T08:52:58;95924.31;;;17.90;57.65
38285;BME280;24088;42.664;23.354;2022-10-16T08:53:59;95923.28;;;18.10;56.57
38285;BME280;24088;42.664;23.354;2022-10-16T08:55:03;95926.06;;;18.10;55.36
38285;BME280;24088;42.664;23.354;2022-10-16T08:56:04;95924.84;;;17.98;55.04
38285;BME280;24088;42.664;23.354;2022-10-16T08:57:07;95926.75;;;18.01;53.60
38285;BME280;24088;42.664;23.354;2022-10-16T08:58:10;95923.94;;;18.26;53.52
38285;BME280;24088;42.664;23.354;2022-10-16T08:59:13;95930.41;;;17.98;52.61
38285;BME280;24088;42.664;23.354;2022-10-16T09:00:14;95939.75;;;18.04;54.00
38285;BME280;24088;42.664;23.354;2022-10-16T09:01:17;95935.84;;;17.89;53.42
38285;BME280;24088;42.664;23.354;2022-10-16T09:02:23;95934.41;;;17.84;52.27
38285;BME280;24088;42.664;23.354;2022-10-16T09:03:29;95929.53;;;17.75;52.39
38285;BME280;24088;42.664;23.354;2022-10-16T09:07:11;95929.41;;;17.92;52.81
38285;BME280;24088;42.664;23.354;2022-10-16T09:08:17;95932.06;;;18.08;52.49
38285;BME280;24088;42.664;23.354;2022-10-16T09:09:27;95926.00;;;18.48;51.44
38285;BME280;24088;42.664;23.354;2022-10-16T09:10:35;95920.16;;;18.68;50.58
38285;BME280;24088;42.664;23.354;2022-10-16T09:11:41;95925.78;;;18.42;49.08
38285;BME280;24088;42.664;23.354;2022-10-16T09:12:46;95924.28;;;18.29;49.67
38285;BME280;24088;42.664;23.354;2022-10-16T09:13:51;95913.06;;;18.54;48.48
38285;BME280;24088;42.664;23.354;2022-10-16T09:15:00;95916.50;;;18.58;48.84
38285;BME280;24088;42.664;23.354;2022-10-16T09:16:10;95922.25;;;18.76;48.62
38285;BME280;24088;42.664;23.354;2022-10-16T09:18:34;95922.22;;;18.42;48.91
38285;BME280;24088;42.664;23.354;2022-10-16T09:19:39;95924.44;;;18.47;48.00
38285;BME280;24088;42.664;23.354;2022-10-16T09:20:45;95921.16;;;18.61;48.83
38285;BME280;24088;42.664;23.354;2022-10-16T09:21:50;95922.84;;;18.93;48.07
38285;BME280;24088;42.664;23.354;2022-10-16T09:22:51;95921.75;;;18.56;48.58
38285;BME280;24088;42.664;23.354;2022-10-16T09:23:56;95921.91;;;18.74;49.44
38285;BME280;24088;42.664;23.354;2022-10-16T09:24:59;95923.81;;;18.77;48.83
38285;BME280;24088;42.664;23.354;2022-10-16T09:26:00;95924.59;;;18.65;48.95
38285;BME280;24088;42.664;23.354;2022-10-16T09:27:03;95916.00;;;18.85;48.87
38285;BME280;24088;42.664;23.354;2022-10-16T09:28:03;95926.28;;;18.97;47.20
38285;BME280;24088;42.664;23.354;2022-10-16T09:29:05;95924.34;;;19.07;46.26
38285;BME280;24088;42.664;23.354;2022-10-16T09:30:12;95919.50;;;18.98;46.44
38285;BME280;24088;42.664;23.354;2022-10-16T09:31:15;95927.72;;;19.02;46.21
38285;BME280;24088;42.664;23.354;2022-10-16T09:32:19;95925.06;;;18.98;46.06
38285;BME280;24088;42.664;23.354;2022-10-16T09:33:21;95921.38;;;19.01;45.57
38285;BME280;24088;42.664;23.354;2022-10-16T09:34:25;95923.09;;;18.86;45.68
38285;BME280;24088;42.664;23.354;2022-10-16T09:35:31;95923.03;;;18.77;46.06
38285;BME280;24088;42.664;23.354;2022-10-16T09:36:35;95924.00;;;18.83;46.64
38285;BME280;24088;42.664;23.354;2022-10-16T09:37:39;95917.19;;;18.84;45.95
38285;BME280;24088;42.664;23.354;2022-10-16T09:38:40;95919.53;;;18.86;45.22
38285;BME280;24088;42.664;23.354;2022-10-16T09:39:45;95912.25;;;19.23;48.04
38285;BME280;24088;42.664;23.354;2022-10-16T09:40:46;95907.84;;;19.44;47.16
38285;BME280;24088;42.664;23.354;2022-10-16T09:41:48;95914.44;;;19.06;45.30
38285;BME280;24088;42.664;23.354;2022-10-16T09:42:50;95913.97;;;19.30;45.73
38285;BME280;24088;42.664;23.354;2022-10-16T09:43:53;95912.00;;;19.39;45.83
38285;BME280;24088;42.664;23.354;2022-10-16T09:44:56;95907.13;;;19.21;44.82
38285;BME280;24088;42.664;23.354;2022-10-16T09:45:59;95908.84;;;18.84;45.93
38285;BME280;24088;42.664;23.354;2022-10-16T09:47:02;95919.38;;;19.02;46.19
38285;BME280;24088;42.664;23.354;2022-10-16T09:48:08;95912.50;;;19.16;45.97
38285;BME280;24088;42.664;23.354;2022-10-16T09:49:18;95910.66;;;19.22;45.02
38285;BME280;24088;42.664;23.354;2022-10-16T09:50:22;95902.78;;;19.20;44.93
38285;BME280;24088;42.664;23.354;2022-10-16T09:51:24;95904.47;;;19.18;45.15
38285;BME280;24088;42.664;23.354;2022-10-16T09:52:27;95905.38;;;18.93;45.31
38285;BME280;24088;42.664;23.354;2022-10-16T09:53:37;95900.84;;;19.08;45.54
38285;BME280;24088;42.664;23.354;2022-10-16T09:54:48;95903.63;;;18.86;45.62
38285;BME280;24088;42.664;23.354;2022-10-16T09:55:49;95907.41;;;19.14;45.68
38285;BME280;24088;42.664;23.354;2022-10-16T09:56:51;95899.28;;;19.60;45.26
38285;BME280;24088;42.664;23.354;2022-10-16T09:57:54;95897.56;;;19.54;44.85
38285;BME280;24088;42.664;23.354;2022-10-16T09:58:55;95902.28;;;19.44;45.00
38285;BME280;24088;42.664;23.354;2022-10-16T09:59:57;95893.84;;;19.88;45.14
38285;BME280;24088;42.664;23.354;2022-10-16T10:00:59;95904.34;;;19.52;44.27
38285;BME280;24088;42.664;23.354;2022-10-16T10:02:01;95898.84;;;19.40;44.37
38285;BME280;24088;42.664;23.354;2022-10-16T10:03:08;95903.66;;;19.39;44.03
38285;BME280;24088;42.664;23.354;2022-10-16T10:04:10;95896.66;;;19.88;43.73
38285;BME280;24088;42.664;23.354;2022-10-16T10:05:18;95895.66;;;20.22;42.45
38285;BME280;24088;42.664;23.354;2022-10-16T10:06:22;95893.50;;;20.26;42.48
38285;BME280;24088;42.664;23.354;2022-10-16T10:07:24;95888.81;;;20.14;42.54
38285;BME280;24088;42.664;23.354;2022-10-16T10:08:27;95898.91;;;20.30;42.02
38285;BME280;24088;42.664;23.354;2022-10-16T10:09:28;95886.53;;;19.72;41.88
38285;BME280;24088;42.664;23.354;2022-10-16T10:10:31;95888.25;;;19.79;42.93
38285;BME280;24088;42.664;23.354;2022-10-16T10:12:52;95882.00;;;20.15;42.50
38285;BME280;24088;42.664;23.354;2022-10-16T10:13:52;95885.22;;;20.04;42.67
38285;BME280;24088;42.664;23.354;2022-10-16T10:15:04;95879.41;;;20.39;40.90
38285;BME280;24088;42.664;23.354;2022-10-16T10:16:09;95889.47;;;20.45;41.09
38285;BME280;24088;42.664;23.354;2022-10-16T10:17:11;95889.31;;;20.21;41.50
38285;BME280;24088;42.664;23.354;2022-10-16T10:18:16;95886.16;;;20.01;41.27
38285;BME280;24088;42.664;23.354;2022-10-16T10:19:20;95882.44;;;20.04;41.47
38285;BME280;24088;42.664;23.354;2022-10-16T10:20:22;95892.66;;;20.07;42.05
38285;BME280;24088;42.664;23.354;2022-10-16T10:21:24;95885.69;;;20.12;41.68
38285;BME280;24088;42.664;23.354;2022-10-16T10:22:26;95887.56;;;19.65;42.19
38285;BME280;24088;42.664;23.354;2022-10-16T10:23:29;95884.44;;;20.04;41.38
38285;BME280;24088;42.664;23.354;2022-10-16T10:24:32;95871.72;;;19.84;41.88
38285;BME280;24088;42.664;23.354;2022-10-16T10:25:38;95880.25;;;19.99;41.72
38285;BME280;24088;42.664;23.354;2022-10-16T10:26:46;95883.41;;;20.19;39.66
38285;BME280;24088;42.664;23.354;2022-10-16T10:27:56;95879.38;;;20.20;39.56
38285;BME280;24088;42.664;23.354;2022-10-16T10:29:01;95877.97;;;20.25;39.09
38285;BME280;24088;42.664;23.354;2022-10-16T10:30:06;95880.19;;;20.30;39.14
38285;BME280;24088;42.664;23.354;2022-10-16T10:31:12;95875.03;;;20.10;39.20
38285;BME280;24088;42.664;23.354;2022-10-16T10:32:18;95873.38;;;20.40;39.42
38285;BME280;24088;42.664;23.354;2022-10-16T10:33:24;95881.00;;;20.67;38.84
38285;BME280;24088;42.664;23.354;2022-10-16T10:34:36;95879.56;;;20.26;37.86
38285;BME280;24088;42.664;23.354;2022-10-16T10:35:42;95872.25;;;20.29;38.53
38285;BME280;24088;42.664;23.354;2022-10-16T10:36:46;95870.88;;;20.24;38.12
38285;BME280;24088;42.664;23.354;2022-10-16T10:37:54;95871.38;;;19.82;38.36
38285;BME280;24088;42.664;23.354;2022-10-16T10:38:59;95874.63;;;19.81;38.67
38285;BME280;24088;42.664;23.354;2022-10-16T10:40:02;95874.88;;;20.05;38.86
38285;BME280;24088;42.664;23.354;2022-10-16T10:41:13;95873.63;;;20.15;39.57
38285;BME280;24088;42.664;23.354;2022-10-16T10:42:21;95867.06;;;20.49;39.19
38285;BME280;24088;42.664;23.354;2022-10-16T10:43:29;95869.84;;;20.49;39.00
38285;BME280;24088;42.664;23.354;2022-10-16T10:44:55;95867.88;;;20.00;39.74
38285;BME280;24088;42.664;23.354;2022-10-16T10:45:58;95868.06;;;20.15;39.67
38285;BME280;24088;42.664;23.354;2022-10-16T10:47:05;95869.47;;;20.19;39.73
38285;BME280;24088;42.664;23.354;2022-10-16T10:48:13;95866.03;;;19.97;39.80
38285;BME280;24088;42.664;23.354;2022-10-16T10:49:27;95866.09;;;19.75;40.34
38285;BME280;24088;42.664;23.354;2022-10-16T10:50:33;95861.47;;;20.49;39.46
38285;BME280;24088;42.664;23.354;2022-10-16T10:51:38;95860.59;;;19.93;38.97
38285;BME280;24088;42.664;23.354;2022-10-16T10:52:42;95859.03;;;19.83;39.98
38285;BME280;24088;42.664;23.354;2022-10-16T10:53:48;95860.66;;;20.30;39.48
38285;BME280;24088;42.664;23.354;2022-10-16T10:54:51;95849.13;;;19.91;39.50
38285;BME280;24088;42.664;23.354;2022-10-16T10:55:58;95857.16;;;19.89;39.81